Time;durP1;ratioP1;P1;durP2;ratioP2;P2;SDS_P1;SDS_P2;PMS_P1;PMS_P2;Temp;Humidity;BMP_temperature;BMP_pressure;BME280_temperature;BME280_humidity;BME280_pressure;Samples;Min_cycle;Max_cycle;Signal;HPM_P1;HPM_P2
2023/03/24 00:00:32;;;;;;;8.20;3.87;;;11.40;1.00;;;;;;4962269;28;20473;-82
2023/03/24 00:03:01;;;;;;;8.10;4.03;;;11.40;1.00;;;;;;4962456;28;20516;-82
2023/03/24 00:05:29;;;;;;;8.97;4.30;;;11.30;1.00;;;;;;4961317;28;20536;-82
2023/03/24 00:08:01;;;;;;;9.77;4.20;;;11.30;1.00;;;;;;4961740;28;20486;-83
2023/03/24 00:10:33;;;;;;;7.80;3.93;;;11.30;1.00;;;;;;4958811;28;20448;-82
2023/03/24 00:13:00;;;;;;;7.23;3.87;;;11.30;1.00;;;;;;4961805;28;20463;-81
2023/03/24 00:15:30;;;;;;;7.67;3.83;;;11.40;1.00;;;;;;4957126;28;20433;-82
2023/03/24 00:17:57;;;;;;;8.40;3.97;;;11.40;1.00;;;;;;4958344;28;20437;-82
2023/03/24 00:20:25;;;;;;;7.10;3.43;;;11.30;1.00;;;;;;4964049;28;20480;-82
2023/03/24 00:22:56;;;;;;;8.30;4.23;;;11.30;1.00;;;;;;4961062;28;20461;-82
2023/03/24 00:25:28;;;;;;;7.20;3.50;;;11.30;1.00;;;;;;4965610;28;22446;-82
2023/03/24 00:27:56;;;;;;;8.50;3.80;;;11.40;1.00;;;;;;4960411;28;20469;-82
2023/03/24 00:30:24;;;;;;;7.80;3.30;;;11.40;1.00;;;;;;4964119;28;21190;-83
2023/03/24 00:32:51;;;;;;;7.57;3.50;;;11.40;1.00;;;;;;4936060;28;20920;-83
2023/03/24 00:35:22;;;;;;;7.00;3.43;;;11.30;1.00;;;;;;4960558;28;20468;-83
2023/03/24 00:37:51;;;;;;;6.90;3.70;;;11.30;1.00;;;;;;4961173;28;20503;-83
2023/03/24 00:40:22;;;;;;;7.00;3.20;;;11.30;1.00;;;;;;4965407;28;20474;-82
2023/03/24 00:42:51;;;;;;;7.73;3.87;;;11.20;1.00;;;;;;4962203;28;20464;-83
2023/03/24 00:45:22;;;;;;;6.77;2.77;;;11.20;1.00;;;;;;4961494;28;20464;-82
2023/03/24 00:47:52;;;;;;;8.73;3.60;;;11.20;1.00;;;;;;4958380;28;22404;-82
2023/03/24 00:50:25;;;;;;;7.60;3.73;;;11.10;1.00;;;;;;4960384;28;21179;-82
2023/03/24 00:52:52;;;;;;;7.80;3.70;;;11.10;1.00;;;;;;4939414;28;20497;-82
2023/03/24 00:55:20;;;;;;;7.47;3.40;;;11.20;1.00;;;;;;4962503;28;20462;-83
2023/03/24 00:57:49;;;;;;;6.83;3.40;;;11.20;1.00;;;;;;4962423;28;20495;-82
2023/03/24 01:00:20;;;;;;;7.77;3.50;;;11.20;1.00;;;;;;4963540;28;20554;-82
2023/03/24 01:02:52;;;;;;;8.90;3.57;;;11.20;1.00;;;;;;4945821;28;20461;-83
2023/03/24 01:05:21;;;;;;;7.40;3.47;;;11.30;1.00;;;;;;4960597;28;21055;-84
2023/03/24 01:07:50;;;;;;;8.37;3.10;;;11.30;1.00;;;;;;4958605;28;20553;-83
2023/03/24 01:10:20;;;;;;;7.20;3.60;;;11.30;1.00;;;;;;4961112;28;20904;-83
2023/03/24 01:12:48;;;;;;;6.90;3.13;;;11.40;1.00;;;;;;4963182;28;21014;-83
2023/03/24 01:15:20;;;;;;;8.60;3.30;;;11.40;1.00;;;;;;4963829;28;20472;-83
2023/03/24 01:17:48;;;;;;;9.00;3.20;;;11.40;1.00;;;;;;4964953;28;20473;-82
2023/03/24 01:20:16;;;;;;;7.60;3.70;;;11.40;1.00;;;;;;4963542;28;21149;-83
2023/03/24 01:22:45;;;;;;;7.30;3.53;;;11.40;1.00;;;;;;4962661;28;20914;-82
2023/03/24 01:25:15;;;;;;;7.50;3.57;;;11.30;1.00;;;;;;4961660;28;20439;-82
2023/03/24 01:27:43;;;;;;;7.10;3.47;;;11.40;1.00;;;;;;4959519;28;20529;-82
2023/03/24 01:30:13;;;;;;;7.80;3.50;;;11.50;1.00;;;;;;4962041;28;20507;-83
2023/03/24 01:32:42;;;;;;;6.20;3.07;;;11.40;1.00;;;;;;4960789;28;20470;-82
2023/03/24 01:35:11;;;;;;;8.57;3.53;;;11.40;1.00;;;;;;4963465;28;20461;-83
2023/03/24 01:37:38;;;;;;;7.13;3.30;;;11.50;1.00;;;;;;4961509;28;20556;-83
2023/03/24 01:40:08;;;;;;;7.17;3.20;;;11.60;1.00;;;;;;4964920;28;20467;-82
2023/03/24 01:42:37;;;;;;;6.43;3.30;;;11.60;1.00;;;;;;4958121;28;20481;-82
2023/03/24 01:45:41;;;;;;;6.83;3.40;;;11.60;1.00;;;;;;4945679;28;20593;-82
2023/03/24 01:48:14;;;;;;;6.53;3.10;;;11.50;1.00;;;;;;4962711;28;20473;-81
2023/03/24 01:50:45;;;;;;;8.13;3.57;;;11.50;1.00;;;;;;4961553;28;20461;-82
2023/03/24 01:53:12;;;;;;;9.10;3.40;;;11.50;1.00;;;;;;4958860;28;20473;-83
2023/03/24 01:55:41;;;;;;;8.33;3.50;;;11.50;1.00;;;;;;4959699;28;20466;-82
2023/03/24 01:58:09;;;;;;;7.00;3.27;;;11.40;1.00;;;;;;4959029;28;20485;-83
2023/03/24 02:00:36;;;;;;;7.60;3.33;;;11.40;1.00;;;;;;4964404;28;20467;-78
2023/03/24 02:05:43;;;;;;;6.80;3.53;;;11.30;1.00;;;;;;5325079;23;20469;-82
2023/03/24 02:08:16;;;;;;;7.43;3.03;;;11.40;1.00;;;;;;4954667;28;20480;-82
2023/03/24 02:10:44;;;;;;;6.43;3.10;;;11.40;1.00;;;;;;4951428;28;20945;-85
2023/03/24 02:13:11;;;;;;;6.60;3.13;;;11.40;1.00;;;;;;4951286;28;20500;-84
2023/03/24 02:15:46;;;;;;;7.00;3.33;;;11.40;1.00;;;;;;4949498;28;20465;-84
2023/03/24 02:18:19;;;;;;;6.63;2.90;;;11.50;1.00;;;;;;4954897;28;20476;-84
2023/03/24 02:21:41;;;;;;;6.37;2.90;;;11.50;1.00;;;;;;4955429;28;20920;-84
2023/03/24 02:24:38;;;;;;;6.33;3.10;;;11.50;1.00;;;;;;4941623;28;20476;-83
2023/03/24 02:27:14;;;;;;;9.00;3.53;;;11.50;1.00;;;;;;4953801;28;20465;-84
2023/03/24 02:30:14;;;;;;;6.60;3.37;;;11.50;1.00;;;;;;4954354;28;20568;-82
2023/03/24 02:33:17;;;;;;;7.70;3.33;;;11.60;1.00;;;;;;4949891;28;20497;-83
2023/03/24 02:36:15;;;;;;;6.67;3.20;;;11.50;1.00;;;;;;4953803;28;20859;-84
2023/03/24 02:39:27;;;;;;;7.97;3.47;;;11.60;1.00;;;;;;4957810;28;21263;-83
2023/03/24 02:42:04;;;;;;;6.83;3.33;;;11.60;1.00;;;;;;4958339;28;20461;-84
2023/03/24 02:44:38;;;;;;;6.30;3.10;;;11.70;1.00;;;;;;4955960;28;20453;-83
2023/03/24 02:47:16;;;;;;;6.87;2.93;;;11.70;1.00;;;;;;4955377;28;20533;-83
2023/03/24 02:49:47;;;;;;;6.20;2.47;;;11.70;1.00;;;;;;4952128;28;21184;-85
2023/03/24 02:52:22;;;;;;;7.07;2.90;;;11.80;1.00;;;;;;4955956;28;20498;-83
2023/03/24 02:54:53;;;;;;;6.80;2.90;;;11.80;1.00;;;;;;4953132;28;20516;-83
2023/03/24 02:57:32;;;;;;;7.47;3.17;;;11.80;1.00;;;;;;4954736;28;21375;-84
2023/03/24 03:00:08;;;;;;;7.43;3.33;;;11.80;1.00;;;;;;4951143;28;20430;-84
2023/03/24 03:02:39;;;;;;;6.70;3.20;;;11.70;1.00;;;;;;4959189;28;20433;-83
2023/03/24 03:05:13;;;;;;;7.70;3.63;;;11.50;1.00;;;;;;4956935;28;20473;-85
2023/03/24 03:07:43;;;;;;;6.70;2.97;;;11.30;1.00;;;;;;4948220;28;20465;-84
2023/03/24 03:10:16;;;;;;;7.13;3.30;;;11.20;1.00;;;;;;4954980;28;20616;-85
2023/03/24 03:12:48;;;;;;;7.17;3.37;;;11.10;1.00;;;;;;4953095;28;20485;-84
2023/03/24 03:15:19;;;;;;;7.27;3.33;;;11.10;1.00;;;;;;4944983;28;20477;-82
2023/03/24 03:17:51;;;;;;;6.43;2.97;;;11.10;1.00;;;;;;4954760;28;20457;-82
2023/03/24 03:20:23;;;;;;;7.20;3.30;;;11.10;1.00;;;;;;4954083;28;20466;-83
2023/03/24 03:22:56;;;;;;;7.47;3.60;;;11.10;1.00;;;;;;4954599;28;20526;-84
2023/03/24 03:25:27;;;;;;;7.87;3.37;;;11.10;1.00;;;;;;4946963;28;20505;-83
2023/03/24 03:28:00;;;;;;;7.20;3.27;;;11.10;1.00;;;;;;4956407;28;20478;-83
2023/03/24 03:30:32;;;;;;;7.23;3.50;;;11.10;1.00;;;;;;4957175;28;20526;-83
2023/03/24 03:33:04;;;;;;;7.93;3.50;;;11.10;1.00;;;;;;4954148;28;20516;-84
2023/03/24 03:35:35;;;;;;;7.50;3.20;;;11.10;1.00;;;;;;4953028;28;20928;-82
2023/03/24 03:38:09;;;;;;;8.13;3.40;;;11.00;1.00;;;;;;4958174;28;20511;-83
2023/03/24 03:40:43;;;;;;;8.17;3.40;;;11.10;1.00;;;;;;4955741;28;20422;-83
2023/03/24 03:43:12;;;;;;;8.73;3.77;;;11.00;1.00;;;;;;4950324;28;20563;-84
2023/03/24 03:45:40;;;;;;;8.20;3.57;;;11.00;1.00;;;;;;4954458;28;20474;-83
2023/03/24 03:48:09;;;;;;;7.90;3.60;;;11.10;1.00;;;;;;4953273;28;20556;-83
2023/03/24 03:50:37;;;;;;;7.07;3.40;;;11.00;1.00;;;;;;4956438;28;20847;-82
2023/03/24 03:53:06;;;;;;;6.90;2.87;;;11.00;1.00;;;;;;4955840;28;20486;-82
2023/03/24 03:55:34;;;;;;;15.87;4.43;;;11.00;1.00;;;;;;4958070;28;20469;-82
2023/03/24 03:58:01;;;;;;;9.10;3.53;;;11.00;1.00;;;;;;4956445;28;20618;-82
2023/03/24 04:00:30;;;;;;;9.77;4.27;;;10.90;1.00;;;;;;4949487;28;20458;-83
2023/03/24 04:03:37;;;;;;;8.40;4.30;;;11.00;1.00;;;;;;4951136;28;21303;-83
2023/03/24 04:06:12;;;;;;;9.80;3.80;;;10.90;1.00;;;;;;4956155;28;21014;-84
2023/03/24 04:08:48;;;;;;;8.50;4.20;;;10.90;1.00;;;;;;4952897;28;20462;-83
2023/03/24 04:11:43;;;;;;;9.07;5.00;;;11.00;1.00;;;;;;4952949;28;21083;-83
2023/03/24 04:14:44;;;;;;;8.40;4.40;;;11.00;1.00;;;;;;4936780;28;20989;-82
2023/03/24 04:17:26;;;;;;;8.77;4.93;;;11.00;1.00;;;;;;4940695;28;20950;-83
2023/03/24 04:20:09;;;;;;;7.80;3.93;;;11.00;1.00;;;;;;4946391;28;21069;-83
2023/03/24 04:22:49;;;;;;;8.80;4.70;;;10.90;1.00;;;;;;4951728;28;20460;-81
2023/03/24 04:25:28;;;;;;;8.50;4.67;;;11.00;1.00;;;;;;4954578;28;20480;-83
2023/03/24 04:28:01;;;;;;;8.20;4.10;;;11.00;1.00;;;;;;4952364;28;20469;-83
2023/03/24 04:30:37;;;;;;;8.50;3.97;;;11.00;1.00;;;;;;4955423;28;20457;-82
2023/03/24 04:33:16;;;;;;;10.40;5.00;;;11.00;1.00;;;;;;4957528;28;20474;-85
2023/03/24 04:35:48;;;;;;;9.83;5.07;;;11.00;1.00;;;;;;4955333;28;20477;-83
2023/03/24 04:38:21;;;;;;;12.53;4.30;;;11.10;1.00;;;;;;4955945;28;20425;-83
2023/03/24 04:40:51;;;;;;;9.67;4.40;;;11.00;1.00;;;;;;4954950;28;20461;-83
2023/03/24 04:43:23;;;;;;;9.70;5.40;;;11.00;1.00;;;;;;4953926;28;20580;-83
2023/03/24 04:45:51;;;;;;;10.00;5.27;;;11.00;1.00;;;;;;4953869;28;20437;-83
2023/03/24 04:48:21;;;;;;;10.17;4.90;;;11.00;1.00;;;;;;4955435;28;20487;-82
2023/03/24 04:50:54;;;;;;;9.93;5.23;;;11.00;1.00;;;;;;4954712;28;20476;-82
2023/03/24 04:53:22;;;;;;;10.20;5.10;;;11.10;1.00;;;;;;4957008;28;20467;-82
2023/03/24 04:56:03;;;;;;;11.30;5.37;;;11.10;1.00;;;;;;4951705;28;21278;-83
2023/03/24 04:58:30;;;;;;;10.60;5.40;;;11.10;1.00;;;;;;4953233;28;20838;-81
2023/03/24 05:00:57;;;;;;;9.60;5.13;;;11.10;1.00;;;;;;4955919;28;20465;-83
2023/03/24 05:03:26;;;;;;;9.83;5.53;;;11.10;1.00;;;;;;4953668;28;20442;-83
2023/03/24 05:05:54;;;;;;;10.27;5.63;;;11.20;1.00;;;;;;4957497;28;20548;-84
2023/03/24 05:08:21;;;;;;;9.10;5.23;;;11.20;1.00;;;;;;4947035;28;20438;-84
2023/03/24 05:10:48;;;;;;;10.17;5.63;;;11.20;1.00;;;;;;4951241;28;20537;-83
2023/03/24 05:13:16;;;;;;;9.90;5.70;;;11.30;1.00;;;;;;4960592;28;21209;-83
2023/03/24 05:15:43;;;;;;;12.67;6.30;;;11.30;1.00;;;;;;4965489;28;20477;-82
2023/03/24 05:18:10;;;;;;;11.13;5.57;;;11.30;1.00;;;;;;4966703;28;20466;-82
2023/03/24 05:20:39;;;;;;;9.93;5.67;;;11.30;1.00;;;;;;4963126;28;20442;-83
2023/03/24 05:23:06;;;;;;;11.27;6.00;;;11.30;1.00;;;;;;4959532;28;20436;-83
2023/03/24 05:25:33;;;;;;;9.30;5.77;;;11.40;1.00;;;;;;4963848;28;20470;-83
2023/03/24 05:28:00;;;;;;;9.50;5.13;;;11.40;1.00;;;;;;4961649;28;20469;-83
2023/03/24 05:30:27;;;;;;;11.13;5.97;;;11.50;1.00;;;;;;4966251;28;21284;-84
2023/03/24 05:32:54;;;;;;;11.97;5.50;;;11.50;1.00;;;;;;4962053;28;20512;-83
2023/03/24 05:35:21;;;;;;;11.40;6.20;;;11.50;1.00;;;;;;4958704;28;20461;-83
2023/03/24 05:37:50;;;;;;;11.00;7.00;;;11.60;1.00;;;;;;4967221;28;20445;-83
2023/03/24 05:40:18;;;;;;;10.90;5.90;;;11.60;1.00;;;;;;4961862;28;20443;-84
2023/03/24 05:42:50;;;;;;;11.03;5.70;;;11.60;1.00;;;;;;4971183;28;20423;-83
2023/03/24 05:45:18;;;;;;;10.70;5.83;;;11.70;1.00;;;;;;4964814;28;20438;-84
2023/03/24 05:47:46;;;;;;;11.40;6.10;;;11.70;1.00;;;;;;4954637;28;20471;-85
2023/03/24 05:50:15;;;;;;;11.20;6.07;;;11.70;1.00;;;;;;4957931;28;20442;-84
2023/03/24 05:52:42;;;;;;;10.10;5.93;;;11.80;1.00;;;;;;4961754;28;20485;-83
2023/03/24 05:55:14;;;;;;;10.47;5.40;;;11.80;1.00;;;;;;4957693;28;20442;-83
2023/03/24 05:57:42;;;;;;;10.30;5.77;;;11.90;1.00;;;;;;4940275;28;20806;-84
2023/03/24 06:00:15;;;;;;;10.60;5.20;;;12.00;1.00;;;;;;4959200;28;20443;-85
2023/03/24 06:02:42;;;;;;;9.90;5.30;;;12.00;1.00;;;;;;4956386;28;21259;-84
2023/03/24 06:05:11;;;;;;;9.97;5.50;;;12.00;1.00;;;;;;4956668;28;20479;-86
2023/03/24 06:07:41;;;;;;;9.37;5.10;;;12.10;1.00;;;;;;4959492;28;20463;-86
2023/03/24 06:10:11;;;;;;;9.30;5.00;;;12.10;1.00;;;;;;4956905;28;20481;-85
2023/03/24 06:12:39;;;;;;;11.90;6.00;;;12.20;1.00;;;;;;4962897;28;20425;-85
2023/03/24 06:15:10;;;;;;;10.20;5.73;;;12.20;1.00;;;;;;4956905;28;20467;-84
2023/03/24 06:17:37;;;;;;;9.70;5.30;;;12.30;1.00;;;;;;4959573;28;20418;-85
2023/03/24 06:20:12;;;;;;;10.50;5.10;;;12.40;1.00;;;;;;4962878;28;20430;-83
2023/03/24 06:22:39;;;;;;;9.47;5.07;;;12.40;1.00;;;;;;4960372;28;20474;-85
2023/03/24 06:25:09;;;;;;;9.30;5.00;;;12.50;1.00;;;;;;4961378;28;20475;-84
2023/03/24 06:27:37;;;;;;;8.97;5.00;;;12.50;1.00;;;;;;4960676;28;20430;-84
2023/03/24 06:30:07;;;;;;;8.57;4.70;;;12.60;1.00;;;;;;4961476;28;20435;-85
2023/03/24 06:32:37;;;;;;;9.53;5.33;;;12.60;1.00;;;;;;4953065;28;20536;-86
2023/03/24 06:35:07;;;;;;;10.20;5.37;;;12.70;1.00;;;;;;4956648;28;20509;-84
2023/03/24 06:37:35;;;;;;;10.17;4.80;;;12.80;1.00;;;;;;4961220;28;21245;-83
2023/03/24 06:40:09;;;;;;;11.83;6.10;;;12.80;1.00;;;;;;4962634;28;21124;-84
2023/03/24 06:42:37;;;;;;;10.70;6.00;;;12.90;1.00;;;;;;4954869;28;20468;-83
2023/03/24 06:45:05;;;;;;;13.80;8.27;;;12.80;1.00;;;;;;4957976;28;20573;-83
2023/03/24 06:47:35;;;;;;;11.80;7.00;;;12.80;1.00;;;;;;4954591;28;20536;-81
2023/03/24 06:50:02;;;;;;;10.93;6.30;;;12.80;1.00;;;;;;4960436;28;20585;-86
2023/03/24 06:52:30;;;;;;;10.20;5.93;;;12.90;1.00;;;;;;4961147;28;20765;-87
2023/03/24 06:54:57;;;;;;;12.20;6.57;;;12.90;1.00;;;;;;4966825;28;20446;-84
2023/03/24 06:57:24;;;;;;;8.50;5.30;;;13.10;1.00;;;;;;4957729;28;20922;-87
2023/03/24 06:59:53;;;;;;;9.10;5.13;;;13.10;1.00;;;;;;4957799;28;20557;-87
2023/03/24 07:02:20;;;;;;;8.20;4.97;;;13.00;1.00;;;;;;4961274;28;20472;-86
2023/03/24 07:04:47;;;;;;;8.53;5.00;;;13.10;1.00;;;;;;4964047;28;21420;-88
2023/03/24 07:07:16;;;;;;;8.47;5.20;;;13.10;1.00;;;;;;4964262;28;20510;-83
2023/03/24 07:09:45;;;;;;;10.20;4.50;;;13.20;1.00;;;;;;4959386;28;20541;-81
2023/03/24 07:12:12;;;;;;;10.37;4.03;;;13.20;1.00;;;;;;4958773;28;20435;-81
2023/03/24 07:14:39;;;;;;;8.17;3.97;;;13.20;1.00;;;;;;4957506;28;20499;-83
2023/03/24 07:17:09;;;;;;;7.57;3.90;;;13.20;1.00;;;;;;4958340;28;20447;-83
2023/03/24 07:19:36;;;;;;;11.37;4.53;;;13.30;1.00;;;;;;4957114;28;20565;-83
2023/03/24 07:22:03;;;;;;;8.93;4.10;;;13.40;1.00;;;;;;4955732;28;20553;-84
2023/03/24 07:24:32;;;;;;;11.37;7.23;;;13.40;1.00;;;;;;4958613;28;20550;-83
2023/03/24 07:26:59;;;;;;;11.47;4.80;;;13.40;1.00;;;;;;4957816;28;20571;-83
2023/03/24 07:29:27;;;;;;;8.40;4.07;;;13.40;1.00;;;;;;4961005;28;20479;-82
2023/03/24 07:31:59;;;;;;;8.03;4.40;;;13.50;1.00;;;;;;4961314;28;20468;-84
2023/03/24 07:34:31;;;;;;;7.80;4.53;;;13.50;1.00;;;;;;4962330;28;20518;-80
2023/03/24 07:36:58;;;;;;;8.73;4.27;;;13.70;1.00;;;;;;4951572;28;20475;-84
2023/03/24 07:39:27;;;;;;;8.10;4.60;;;13.80;1.00;;;;;;4958240;28;20523;-84
2023/03/24 07:41:56;;;;;;;9.53;4.20;;;14.00;1.00;;;;;;4963898;28;21157;-82
2023/03/24 07:44:26;;;;;;;10.60;5.03;;;14.30;1.00;;;;;;4943529;28;20469;-82
2023/03/24 07:46:53;;;;;;;8.17;3.97;;;14.50;1.00;;;;;;4959440;28;20465;-82
2023/03/24 07:49:20;;;;;;;7.33;3.87;;;14.60;1.00;;;;;;4960794;28;20472;-83
2023/03/24 07:51:49;;;;;;;8.10;4.20;;;14.60;1.00;;;;;;4957972;28;20555;-83
2023/03/24 07:54:16;;;;;;;7.97;4.43;;;14.70;1.00;;;;;;4960050;28;20476;-83
2023/03/24 07:56:43;;;;;;;8.83;4.53;;;14.70;1.00;;;;;;4953409;28;20470;-81
2023/03/24 07:59:10;;;;;;;7.70;3.97;;;14.60;1.00;;;;;;4955452;28;20630;-81
2023/03/24 08:01:38;;;;;;;8.50;5.87;;;14.40;1.00;;;;;;4954257;28;21138;-82
2023/03/24 08:04:06;;;;;;;7.80;4.77;;;14.20;1.00;;;;;;4959400;28;20571;-80
2023/03/24 08:06:34;;;;;;;8.87;4.43;;;14.10;1.00;;;;;;4955879;28;21338;-82
2023/03/24 08:09:05;;;;;;;12.77;5.87;;;13.90;1.00;;;;;;4959580;28;20571;-82
2023/03/24 08:11:32;;;;;;;12.10;4.73;;;13.80;1.00;;;;;;4965891;28;20547;-83
2023/03/24 08:14:06;;;;;;;10.47;4.90;;;13.60;1.00;;;;;;4960173;28;20429;-84
2023/03/24 08:16:33;;;;;;;10.50;5.00;;;13.50;1.00;;;;;;4953032;28;20463;-80
2023/03/24 08:19:00;;;;;;;7.73;4.37;;;13.50;1.00;;;;;;4951848;28;20434;-81
2023/03/24 08:21:28;;;;;;;9.00;4.87;;;13.40;1.00;;;;;;4948847;28;20492;-82
2023/03/24 08:23:56;;;;;;;10.00;4.57;;;13.30;1.00;;;;;;4932699;28;21143;-85
2023/03/24 08:26:26;;;;;;;10.03;5.30;;;13.30;1.00;;;;;;4951641;28;20464;-82
2023/03/24 08:28:53;;;;;;;9.20;5.17;;;13.30;1.00;;;;;;4929708;28;20495;-83
2023/03/24 08:31:20;;;;;;;9.03;4.60;;;13.30;1.00;;;;;;4956417;28;20439;-82
2023/03/24 08:33:48;;;;;;;11.60;5.27;;;13.20;1.00;;;;;;4949806;28;20540;-82
2023/03/24 08:36:17;;;;;;;10.80;5.60;;;13.10;1.00;;;;;;4936525;28;20459;-85
2023/03/24 08:38:46;;;;;;;8.20;4.60;;;13.10;1.00;;;;;;4953002;28;20463;-83
2023/03/24 08:41:14;;;;;;;10.50;5.70;;;13.10;1.00;;;;;;4960998;28;20458;-83
2023/03/24 08:43:45;;;;;;;9.17;5.07;;;13.00;1.00;;;;;;4933575;28;20453;-80
2023/03/24 08:46:14;;;;;;;9.03;4.93;;;13.00;1.00;;;;;;4954453;28;20519;-82
2023/03/24 08:48:42;;;;;;;8.10;4.33;;;13.00;1.00;;;;;;4947424;28;20456;-78
2023/03/24 08:51:18;;;;;;;12.13;5.50;;;13.00;1.00;;;;;;4936971;28;20977;-80
2023/03/24 08:53:51;;;;;;;9.47;5.13;;;13.10;1.00;;;;;;4946730;28;20482;-80
2023/03/24 08:57:01;;;;;;;10.10;5.00;;;13.00;1.00;;;;;;4933412;28;20463;-79
2023/03/24 09:03:21;;;;;;;9.50;4.70;;;13.00;1.00;;;;;;4906570;28;20471;-80
2023/03/24 09:09:22;;;;;;;8.10;4.17;;;13.10;1.00;;;;;;4884871;29;21045;-80
2023/03/24 09:11:50;;;;;;;9.40;5.30;;;13.20;1.00;;;;;;4900612;29;20504;-79
2023/03/24 09:14:17;;;;;;;9.27;4.70;;;13.20;1.00;;;;;;4910964;29;20525;-78
2023/03/24 09:16:49;;;;;;;8.33;4.47;;;13.30;1.00;;;;;;4914149;28;20505;-80
2023/03/24 09:19:17;;;;;;;8.97;4.53;;;13.40;1.00;;;;;;4911664;29;20496;-81
2023/03/24 09:21:45;;;;;;;8.43;4.60;;;13.40;1.00;;;;;;4911583;29;20529;-82
2023/03/24 09:24:14;;;;;;;10.30;5.33;;;13.50;1.00;;;;;;4911132;29;21009;-80
2023/03/24 09:26:41;;;;;;;7.83;4.30;;;13.50;1.00;;;;;;4906948;29;21933;-80
2023/03/24 09:29:10;;;;;;;9.67;4.90;;;13.60;1.00;;;;;;4913561;29;20442;-80
2023/03/24 09:31:39;;;;;;;11.33;5.83;;;13.60;1.00;;;;;;4917995;28;20465;-80
2023/03/24 09:34:10;;;;;;;8.60;4.87;;;13.70;1.00;;;;;;4918275;29;20551;-79
2023/03/24 09:36:37;;;;;;;9.50;4.80;;;13.80;1.00;;;;;;4911747;29;20478;-80
2023/03/24 09:39:07;;;;;;;9.40;5.37;;;13.90;1.00;;;;;;4908597;29;20480;-80
2023/03/24 09:41:38;;;;;;;8.97;4.93;;;14.00;1.00;;;;;;4906806;29;20494;-82
2023/03/24 09:44:12;;;;;;;10.47;5.93;;;14.10;1.00;;;;;;4906411;29;20486;-77
2023/03/24 09:46:47;;;;;;;8.20;5.00;;;14.20;1.00;;;;;;4909147;29;20647;-80
2023/03/24 09:49:30;;;;;;;10.50;5.40;;;14.50;1.00;;;;;;4909615;29;20462;-80
2023/03/24 09:52:03;;;;;;;8.80;4.30;;;15.00;1.00;;;;;;4907382;29;20570;-80
2023/03/24 09:54:38;;;;;;;9.77;5.30;;;15.80;1.00;;;;;;4914177;29;20459;-81
2023/03/24 09:57:18;;;;;;;11.07;5.30;;;16.10;1.00;;;;;;4912094;29;20528;-82
2023/03/24 09:59:51;;;;;;;11.83;5.40;;;16.10;1.00;;;;;;4913930;29;20956;-80
2023/03/24 10:02:30;;;;;;;8.43;4.80;;;16.30;1.00;;;;;;4916490;29;20472;-80
2023/03/24 10:05:00;;;;;;;7.73;4.27;;;16.60;1.00;;;;;;4911545;28;20470;-79
2023/03/24 10:07:38;;;;;;;8.83;5.23;;;16.70;1.00;;;;;;4930167;28;20454;-81
2023/03/24 10:10:24;;;;;;;8.70;4.93;;;16.60;1.00;;;;;;4933929;28;20461;-80
2023/03/24 10:12:53;;;;;;;8.10;4.00;;;16.40;1.00;;;;;;4918415;28;20562;-80
2023/03/24 10:15:31;;;;;;;7.50;4.30;;;16.40;1.00;;;;;;4930692;28;20481;-81
2023/03/24 10:18:06;;;;;;;8.13;4.30;;;16.30;1.00;;;;;;4927577;28;20461;-80
2023/03/24 10:20:41;;;;;;;7.90;4.40;;;16.30;1.00;;;;;;4923252;28;20457;-81
2023/03/24 10:23:21;;;;;;;8.17;5.30;;;16.20;1.00;;;;;;4929393;28;20441;-81
2023/03/24 10:25:54;;;;;;;7.73;3.70;;;16.20;1.00;;;;;;4926097;28;20476;-82
2023/03/24 10:28:27;;;;;;;6.60;3.00;;;16.10;1.00;;;;;;4937244;28;20477;-82
2023/03/24 10:30:57;;;;;;;7.00;3.17;;;16.00;1.00;;;;;;4933189;28;20475;-82
2023/03/24 10:33:24;;;;;;;7.17;3.63;;;16.00;1.00;;;;;;4934109;28;20486;-81
2023/03/24 10:36:00;;;;;;;7.13;3.50;;;16.10;1.00;;;;;;4930597;28;20496;-82
2023/03/24 10:38:31;;;;;;;8.10;4.00;;;16.10;1.00;;;;;;4934706;28;20521;-82
2023/03/24 10:41:03;;;;;;;7.83;3.77;;;16.20;1.00;;;;;;4927419;28;20477;-82
2023/03/24 10:43:32;;;;;;;7.73;3.77;;;16.60;1.00;;;;;;4928312;28;20478;-83
2023/03/24 10:46:02;;;;;;;7.90;3.60;;;17.20;1.00;;;;;;4932584;28;20465;-81
2023/03/24 10:48:40;;;;;;;9.47;3.90;;;17.80;1.00;;;;;;4933027;28;20479;-84
2023/03/24 10:51:15;;;;;;;7.90;3.87;;;18.40;1.00;;;;;;4940904;28;20481;-84
2023/03/24 10:53:46;;;;;;;8.87;4.17;;;18.60;1.00;;;;;;4934152;28;20471;-87
2023/03/24 10:56:18;;;;;;;7.27;4.03;;;18.60;1.00;;;;;;4937655;28;21273;-85
2023/03/24 10:58:53;;;;;;;8.67;3.77;;;18.40;1.00;;;;;;4935906;28;20484;-83
2023/03/24 11:01:42;;;;;;;7.77;3.70;;;18.20;1.00;;;;;;4939398;28;20459;-85
2023/03/24 11:04:53;;;;;;;11.03;4.50;;;17.80;1.00;;;;;;4927832;28;20473;-84
2023/03/24 11:14:35;;;;;;;7.03;3.33;;;17.20;1.00;;;;;;4862280;29;20473;-83
2023/03/24 11:28:11;;;;;;;7.60;3.40;;;18.00;1.00;;;;;;4637859;30;20551;-83
2023/03/24 11:30:47;;;;;;;7.43;3.97;;;18.90;1.00;;;;;;4745384;29;20573;-81
2023/03/24 11:33:24;;;;;;;5.63;2.87;;;19.90;1.00;;;;;;4839174;29;20462;-82
2023/03/24 11:35:52;;;;;;;6.90;3.07;;;21.10;1.00;;;;;;4894051;29;20471;-79
2023/03/24 11:38:29;;;;;;;5.83;2.97;;;21.30;1.00;;;;;;4895019;29;21461;-82
2023/03/24 11:40:58;;;;;;;5.40;2.80;;;21.20;1.00;;;;;;4892714;29;20495;-81
2023/03/24 11:43:27;;;;;;;5.40;3.07;;;21.10;1.00;;;;;;4895274;29;21167;-80
2023/03/24 11:46:02;;;;;;;5.73;3.07;;;21.30;1.00;;;;;;4893638;29;20906;-78
2023/03/24 11:48:37;;;;;;;5.30;2.90;;;22.20;1.00;;;;;;4894140;29;20580;-79
2023/03/24 11:51:05;;;;;;;5.30;2.87;;;22.20;1.00;;;;;;4884706;29;20475;-82
2023/03/24 11:53:42;;;;;;;5.77;3.10;;;21.80;1.00;;;;;;4884707;29;20474;-82
2023/03/24 11:56:16;;;;;;;5.77;3.13;;;21.20;1.00;;;;;;4895285;29;20566;-79
2023/03/24 11:58:49;;;;;;;6.83;3.20;;;21.20;1.00;;;;;;4882665;29;20447;-78
2023/03/24 12:01:27;;;;;;;4.90;3.60;;;20.90;1.00;;;;;;4900316;29;20543;-78
2023/03/24 12:04:07;;;;;;;4.30;2.87;;;20.40;1.00;;;;;;4863384;29;20531;-80
2023/03/24 12:06:46;;;;;;;4.40;2.60;;;20.20;1.00;;;;;;4895433;29;20484;-79
2023/03/24 12:09:22;;;;;;;10.13;3.60;;;20.00;1.00;;;;;;4901387;29;20999;-79
2023/03/24 12:12:19;;;;;;;6.20;3.33;;;19.60;1.00;;;;;;4899538;29;20468;-78
2023/03/24 12:15:01;;;;;;;5.00;3.40;;;19.10;1.00;;;;;;4898847;29;20473;-79
2023/03/24 12:17:42;;;;;;;5.40;3.03;;;18.90;1.00;;;;;;4890842;29;20458;-81
2023/03/24 12:20:21;;;;;;;5.23;3.17;;;18.70;1.00;;;;;;4898600;29;20506;-81
2023/03/24 12:22:58;;;;;;;7.40;4.10;;;18.70;1.00;;;;;;4894310;29;20960;-79
2023/03/24 12:25:39;;;;;;;6.77;3.80;;;18.60;1.00;;;;;;4898608;29;20995;-81
2023/03/24 12:28:30;;;;;;;5.50;3.50;;;18.40;1.00;;;;;;4902778;29;20505;-83
2023/03/24 12:31:10;;;;;;;6.00;3.60;;;18.50;1.00;;;;;;4904924;29;20502;-79
2023/03/24 12:34:13;;;;;;;6.00;3.90;;;18.50;1.00;;;;;;4894681;29;20434;-80
2023/03/24 12:36:57;;;;;;;6.00;3.30;;;18.40;1.00;;;;;;4894290;29;21252;-81
2023/03/24 12:39:31;;;;;;;6.10;3.40;;;18.30;1.00;;;;;;4894771;29;20491;-82
2023/03/24 12:42:16;;;;;;;6.53;4.30;;;18.10;1.00;;;;;;4898093;29;20849;-80
2023/03/24 12:45:20;;;;;;;6.27;3.50;;;18.00;1.00;;;;;;4878612;29;20724;-81
2023/03/24 12:48:08;;;;;;;11.80;3.40;;;17.90;1.00;;;;;;4896229;29;20494;-81
2023/03/24 12:50:53;;;;;;;7.77;3.80;;;17.70;1.00;;;;;;4893075;29;20529;-79
2023/03/24 12:53:36;;;;;;;5.57;2.97;;;17.60;1.00;;;;;;4896892;29;20468;-79
2023/03/24 12:56:09;;;;;;;5.93;3.00;;;17.40;1.00;;;;;;4894893;29;20466;-79
2023/03/24 12:58:42;;;;;;;6.10;3.17;;;17.50;1.00;;;;;;4898135;29;20553;-80
2023/03/24 13:01:19;;;;;;;5.00;3.20;;;17.50;1.00;;;;;;4900881;29;20499;-81
2023/03/24 13:03:51;;;;;;;5.10;3.50;;;17.50;1.00;;;;;;4888703;29;20471;-81
2023/03/24 13:06:23;;;;;;;6.27;3.47;;;17.50;1.00;;;;;;4895660;29;20534;-78
2023/03/24 13:09:03;;;;;;;5.63;3.30;;;17.50;1.00;;;;;;4895058;29;20536;-80
2023/03/24 13:11:36;;;;;;;7.87;4.00;;;17.40;1.00;;;;;;4895945;29;20477;-79
2023/03/24 13:14:09;;;;;;;7.67;4.00;;;17.30;1.00;;;;;;4875469;29;20476;-81
2023/03/24 13:16:39;;;;;;;5.63;4.20;;;17.20;1.00;;;;;;4894753;29;20541;-80
2023/03/24 13:19:16;;;;;;;7.83;5.33;;;17.20;1.00;;;;;;4894560;29;20508;-80
2023/03/24 13:21:45;;;;;;;6.60;4.80;;;17.20;1.00;;;;;;4879368;29;20484;-80
2023/03/24 13:24:13;;;;;;;7.80;5.10;;;16.90;1.00;;;;;;4893644;29;20432;-81
2023/03/24 13:26:48;;;;;;;7.17;5.30;;;16.40;1.00;;;;;;4892720;29;21365;-80
2023/03/24 13:29:30;;;;;;;7.50;4.97;;;16.00;1.00;;;;;;4894740;29;20611;-81
2023/03/24 13:32:04;;;;;;;10.40;5.37;;;15.60;1.00;;;;;;4894300;29;20479;-80
2023/03/24 13:34:35;;;;;;;8.37;5.40;;;15.30;1.00;;;;;;4893925;29;20467;-84
2023/03/24 13:37:07;;;;;;;8.20;5.60;;;15.00;1.00;;;;;;4895763;29;20436;-79
2023/03/24 13:39:36;;;;;;;7.33;4.63;;;14.70;1.00;;;;;;4899619;29;20595;-79
2023/03/24 13:42:04;;;;;;;10.03;5.03;;;14.50;1.00;;;;;;4896723;29;21228;-82
2023/03/24 13:44:38;;;;;;;7.57;4.63;;;14.40;1.00;;;;;;4879923;29;20508;-80
2023/03/24 13:47:11;;;;;;;11.87;6.60;;;14.20;1.00;;;;;;4888156;29;20487;-81
2023/03/24 13:49:41;;;;;;;8.90;5.97;;;14.10;1.00;;;;;;4897521;29;20515;-79
2023/03/24 13:52:27;;;;;;;8.20;5.50;;;14.00;1.00;;;;;;4898700;29;20462;-80